KEWB/EWB METAR and TAF weather

Enter ICAO airport designator
Station Type Date Time Source
KEWB METAR 2020/09/30 14:14 UTC NOAA

KEWB 301414Z 21019G31KT 10SM BKN018 BKN034 OVC090 21/19 A2959 RMK AO2 PK WND 22036/1401 T02110189


Station Type Date Time Source
KEWB Decoded METAR 2020/09/30 14:14 UTC NOAA

NEW BEDFORD REGIONAL AIRPORT, MA, United States (KEWB) 41-41N 070-58W 23M
Sep 30, 2020 - 10:14 AM EDT / 2020.09.30 1414 UTC
Wind: from the SSW (210 degrees) at 22 MPH (19 KT) gusting to 36 MPH (31 KT):0
Visibility: 10 mile(s):0
Sky conditions: overcast
Temperature: 70.0 F (21.1 C)
Dew Point: 66.0 F (18.9 C)
Relative Humidity: 87%
Pressure (altimeter): 29.59 in. Hg (1002 hPa)
ob: KEWB 301414Z 21019G31KT 10SM BKN018 BKN034 OVC090 21/19 A2959 RMK AO2 PK WND 22036/1401 T02110189
cycle: 14

Station Type Date Time Source
KEWB TAF UTC NOAA

Error!

Example: see airport list